Time;durP1;ratioP1;P1;durP2;ratioP2;P2;SDS_P1;SDS_P2;PMS_P1;PMS_P2;Temp;Humidity;BMP_temperature;BMP_pressure;BME280_temperature;BME280_humidity;BME280_pressure;Samples;Min_cycle;Max_cycle;Signal;HPM_P1;HPM_P2
2023/01/05 00:00:19;;;;;;;;;;;;;;;10.70;76.38;101777.72;5041959;28;19917;-77
2023/01/05 00:03:04;;;;;;;;;;;;;;;10.55;77.14;101780.59;5041062;28;20303;-77
2023/01/05 00:05:48;;;;;;;;;;;;;;;10.62;76.65;101775.59;5042487;28;19916;-77
2023/01/05 00:08:33;;;;;;;;;;;;;;;10.65;76.35;101775.88;5043607;28;19916;-79
2023/01/05 00:23:33;;;;;;;;;;;;;;;10.29;76.41;101759.13;5045127;28;19917;-77
2023/01/05 00:26:18;;;;;;;;;;;;;;;10.43;76.46;101761.94;5044314;28;19917;-77
2023/01/05 00:29:03;;;;;;;;;;;;;;;10.46;76.20;101755.16;5047912;28;20372;-79
2023/01/05 00:31:47;;;;;;;;;;;;;;;10.23;76.40;101756.72;5044117;28;20315;-78
2023/01/05 00:34:32;;;;;;;;;;;;;;;10.26;77.26;101756.13;5043616;28;19925;-77
2023/01/05 00:37:17;;;;;;;;;;;;;;;10.55;76.46;101753.41;5047049;28;20368;-79
2023/01/05 00:40:01;;;;;;;;;;;;;;;10.69;75.68;101748.88;5046855;28;19916;-78
2023/01/05 00:42:46;;;;;;;;;;;;;;;10.84;75.00;101756.03;5043199;28;19925;-77
2023/01/05 00:45:31;;;;;;;;;;;;;;;10.65;75.30;101750.56;5046196;28;20288;-79
2023/01/05 00:48:15;;;;;;;;;;;;;;;10.52;75.72;101743.91;5049327;28;19916;-77
2023/01/05 00:51:00;;;;;;;;;;;;;;;10.58;75.48;101737.31;5050036;28;19917;-78
2023/01/05 00:53:46;;;;;;;;;;;;;;;10.49;75.89;101739.06;5052404;28;19921;-77
2023/01/05 00:56:30;;;;;;;;;;;;;;;10.46;75.94;101733.38;5058060;28;20339;-77
2023/01/05 00:59:15;;;;;;;;;;;;;;;10.34;76.11;101727.53;5057079;28;19917;-77
2023/01/05 01:02:01;;;;;;;;;;;;;;;10.39;76.16;101731.00;5050395;28;19917;-78
2023/01/05 01:04:45;;;;;;;;;;;;;;;10.51;75.94;101736.88;5053774;28;19917;-78
2023/01/05 01:07:29;;;;;;;;;;;;;;;10.62;75.41;101734.81;5055490;28;19917;-77
2023/01/05 01:10:14;;;;;;;;;;;;;;;10.66;75.06;101733.16;5059776;28;19916;-78
2023/01/05 01:12:58;;;;;;;;;;;;;;;10.64;75.35;101724.47;5044789;28;19921;-77
2023/01/05 01:15:42;;;;;;;;;;;;;;;10.62;75.73;101732.09;5036629;28;20304;-78
2023/01/05 01:18:28;;;;;;;;;;;;;;;10.59;75.85;101721.81;5049673;28;20407;-77
2023/01/05 01:21:12;;;;;;;;;;;;;;;10.60;75.94;101726.16;5037478;28;19917;-80
2023/01/05 01:23:57;;;;;;;;;;;;;;;10.39;76.75;101717.41;5047140;28;19917;-79
2023/01/05 01:26:41;;;;;;;;;;;;;;;10.27;77.29;101720.53;5054042;28;20391;-77
2023/01/05 01:29:25;;;;;;;;;;;;;;;10.38;77.24;101723.13;5051422;28;19950;-76
2023/01/05 01:32:10;;;;;;;;;;;;;;;10.39;76.91;101722.03;5057341;28;19924;-77
2023/01/05 01:34:54;;;;;;;;;;;;;;;10.41;77.33;101719.84;5039750;28;19924;-78
2023/01/05 01:37:39;;;;;;;;;;;;;;;10.22;77.68;101717.84;5059274;28;19916;-77
2023/01/05 01:40:24;;;;;;;;;;;;;;;10.16;78.19;101713.56;5050111;28;19917;-77
2023/01/05 01:43:13;;;;;;;;;;;;;;;10.16;78.00;101719.00;5045612;28;19917;-78
2023/01/05 01:45:57;;;;;;;;;;;;;;;10.21;78.08;101705.34;5059166;28;20299;-78
2023/01/05 01:48:46;;;;;;;;;;;;;;;10.32;78.04;101705.25;5057498;28;19916;-77
2023/01/05 01:51:32;;;;;;;;;;;;;;;10.20;77.40;101708.38;5054498;28;19916;-77
2023/01/05 01:54:17;;;;;;;;;;;;;;;10.35;77.02;101704.69;5038893;28;19921;-77
2023/01/05 01:57:03;;;;;;;;;;;;;;;10.34;77.07;101709.31;5035907;28;19917;-77
2023/01/05 01:59:47;;;;;;;;;;;;;;;10.22;77.69;101707.00;5036183;28;19917;-77
2023/01/05 02:02:32;;;;;;;;;;;;;;;10.33;77.12;101701.44;5034676;28;19921;-78
2023/01/05 02:05:18;;;;;;;;;;;;;;;10.28;77.14;101692.25;5043794;28;19921;-77
2023/01/05 02:08:03;;;;;;;;;;;;;;;9.88;78.12;101692.63;5049564;28;19917;-78
2023/01/05 02:10:56;;;;;;;;;;;;;;;10.02;78.93;101682.72;5053184;28;20295;-78
2023/01/05 02:13:40;;;;;;;;;;;;;;;10.27;77.84;101685.19;5054929;28;20335;-77
2023/01/05 02:16:34;;;;;;;;;;;;;;;10.24;77.88;101682.25;5052517;28;19916;-77
2023/01/05 02:19:37;;;;;;;;;;;;;;;10.31;77.39;101671.03;5044372;28;19917;-77
2023/01/05 02:22:31;;;;;;;;;;;;;;;10.05;78.54;101662.31;5053083;28;20379;-77
2023/01/05 02:25:34;;;;;;;;;;;;;;;10.03;79.16;101659.88;5050542;28;19917;-77
2023/01/05 02:28:22;;;;;;;;;;;;;;;9.77;80.43;101659.31;5051355;28;19917;-78
2023/01/05 02:31:16;;;;;;;;;;;;;;;9.78;80.21;101657.44;5052967;28;19916;-77
2023/01/05 02:34:10;;;;;;;;;;;;;;;10.04;79.43;101638.97;5056940;28;19920;-78
2023/01/05 02:36:59;;;;;;;;;;;;;;;10.06;78.90;101642.19;5047595;28;19916;-77
2023/01/05 02:39:52;;;;;;;;;;;;;;;10.33;78.15;101637.00;5037602;28;19917;-77
2023/01/05 02:42:37;;;;;;;;;;;;;;;10.30;77.82;101643.03;5057299;28;20295;-77
2023/01/05 02:45:22;;;;;;;;;;;;;;;10.28;78.04;101628.91;5054927;28;19917;-78
2023/01/05 02:48:11;;;;;;;;;;;;;;;10.27;78.12;101630.81;5045863;28;20303;-79
2023/01/05 02:51:00;;;;;;;;;;;;;;;10.25;78.08;101626.78;5051031;28;20307;-77
2023/01/05 02:53:48;;;;;;;;;;;;;;;10.20;78.51;101622.22;5047980;28;19921;-77
2023/01/05 02:56:37;;;;;;;;;;;;;;;10.26;78.81;101621.03;5033705;28;19917;-77
2023/01/05 02:59:25;;;;;;;;;;;;;;;10.17;79.15;101611.09;5037721;28;19917;-77
2023/01/05 03:02:19;;;;;;;;;;;;;;;10.19;78.99;101612.44;5048342;28;19916;-77
2023/01/05 03:05:09;;;;;;;;;;;;;;;10.23;79.29;101605.31;5052385;28;20490;-77
2023/01/05 03:08:05;;;;;;;;;;;;;;;10.12;79.17;101602.97;5056257;28;20449;-77
2023/01/05 03:14:02;;;;;;;;;;;;;;;9.88;80.69;101595.66;5056793;28;19921;-78
2023/01/05 03:16:48;;;;;;;;;;;;;;;9.79;81.46;101583.00;5033558;28;19921;-77
2023/01/05 03:19:41;;;;;;;;;;;;;;;9.79;81.99;101577.56;5043346;28;19921;-78
2023/01/05 03:35:30;;;;;;;;;;;;;;;9.72;82.41;101556.16;5046791;28;19920;-78
2023/01/05 03:38:25;;;;;;;;;;;;;;;9.71;82.43;101556.44;5044572;28;19917;-79
2023/01/05 03:41:12;;;;;;;;;;;;;;;9.87;82.01;101557.91;5034929;28;20372;-77
2023/01/05 03:43:58;;;;;;;;;;;;;;;9.94;81.57;101552.94;5046629;28;19917;-77
2023/01/05 03:46:43;;;;;;;;;;;;;;;9.94;81.64;101552.13;5057477;28;19916;-77
2023/01/05 03:49:27;;;;;;;;;;;;;;;9.96;80.87;101542.56;5050761;28;20383;-78
2023/01/05 03:52:12;;;;;;;;;;;;;;;10.02;80.68;101543.31;5049418;28;19917;-77
2023/01/05 03:54:59;;;;;;;;;;;;;;;10.03;80.50;101540.31;5065156;28;19921;-78
2023/01/05 03:57:45;;;;;;;;;;;;;;;9.97;80.38;101527.91;5055404;28;19917;-79
2023/01/05 04:00:31;;;;;;;;;;;;;;;9.98;80.59;101532.22;5052346;28;19917;-78
2023/01/05 04:03:21;;;;;;;;;;;;;;;9.99;80.29;101527.63;5044367;28;19925;-77
2023/01/05 04:06:07;;;;;;;;;;;;;;;9.96;79.94;101536.31;5035509;28;20121;-78
2023/01/05 04:08:54;;;;;;;;;;;;;;;9.95;80.12;101538.25;5037268;28;19917;-77
2023/01/05 04:11:38;;;;;;;;;;;;;;;10.08;79.53;101528.56;5037078;28;19917;-77
2023/01/05 04:14:25;;;;;;;;;;;;;;;10.17;79.19;101532.28;5055028;28;19921;-77
2023/01/05 04:17:10;;;;;;;;;;;;;;;9.96;79.73;101528.19;5057641;28;19917;-77
2023/01/05 04:19:56;;;;;;;;;;;;;;;9.98;79.97;101534.94;5049133;28;19918;-77
2023/01/05 04:22:40;;;;;;;;;;;;;;;9.95;80.57;101526.59;5055820;28;19917;-77
2023/01/05 04:25:26;;;;;;;;;;;;;;;10.04;80.15;101532.97;5042060;28;20392;-77
2023/01/05 04:28:11;;;;;;;;;;;;;;;9.88;80.62;101529.66;5046437;28;19917;-79
2023/01/05 04:30:56;;;;;;;;;;;;;;;9.74;81.18;101543.13;5057803;28;20388;-79
2023/01/05 04:33:44;;;;;;;;;;;;;;;9.73;81.25;101535.25;5056158;28;19921;-79
2023/01/05 04:36:30;;;;;;;;;;;;;;;9.68;81.58;101541.56;5047645;28;19917;-79
2023/01/05 04:39:16;;;;;;;;;;;;;;;9.66;82.08;101545.66;5053676;28;19917;-79
2023/01/05 04:42:01;;;;;;;;;;;;;;;9.76;81.59;101531.94;5055209;28;20292;-79
2023/01/05 04:44:46;;;;;;;;;;;;;;;9.87;81.36;101536.97;5055836;28;19917;-79
2023/01/05 04:47:31;;;;;;;;;;;;;;;9.86;81.09;101535.34;5056148;28;19916;-79
2023/01/05 04:50:17;;;;;;;;;;;;;;;10.01;80.95;101531.63;5051424;28;19921;-79
2023/01/05 04:53:02;;;;;;;;;;;;;;;9.77;81.32;101523.53;5054220;28;19921;-80
2023/01/05 04:55:48;;;;;;;;;;;;;;;9.86;81.87;101529.13;5041519;28;19921;-79
2023/01/05 04:58:32;;;;;;;;;;;;;;;9.91;80.91;101526.34;5055222;28;20299;-79
2023/01/05 05:01:17;;;;;;;;;;;;;;;9.85;82.09;101532.94;5050402;28;19917;-78
2023/01/05 05:04:06;;;;;;;;;;;;;;;9.79;82.11;101515.09;5054465;28;19917;-79
2023/01/05 05:06:51;;;;;;;;;;;;;;;9.70;82.99;101528.47;5048312;28;19921;-79
2023/01/05 05:09:36;;;;;;;;;;;;;;;9.80;82.70;101519.44;5061435;28;19924;-79
2023/01/05 05:12:21;;;;;;;;;;;;;;;9.77;82.78;101514.56;5044991;28;20304;-79
2023/01/05 05:15:09;;;;;;;;;;;;;;;9.76;82.54;101521.91;5035576;28;20377;-79
2023/01/05 05:17:53;;;;;;;;;;;;;;;9.91;82.11;101523.63;5050028;28;19917;-78
2023/01/05 05:20:40;;;;;;;;;;;;;;;9.78;82.52;101529.75;5053646;28;19917;-79
2023/01/05 05:23:24;;;;;;;;;;;;;;;9.73;82.62;101529.81;5054557;28;19916;-79
2023/01/05 05:26:09;;;;;;;;;;;;;;;9.71;82.69;101534.72;5052548;28;19917;-79
2023/01/05 05:28:56;;;;;;;;;;;;;;;9.69;nan;101531.50;5041284;28;19917;-79
2023/01/05 05:31:41;;;;;;;;;;;;;;;9.74;83.11;101537.69;5035998;28;20301;-79
2023/01/05 05:34:25;;;;;;;;;;;;;;;9.64;82.91;101534.28;5035701;28;19921;-79
2023/01/05 05:37:10;;;;;;;;;;;;;;;9.58;83.08;101535.44;5053769;28;19916;-80
2023/01/05 05:39:54;;;;;;;;;;;;;;;9.56;83.75;101534.91;5038821;28;19917;-80
2023/01/05 05:42:38;;;;;;;;;;;;;;;9.50;83.18;101526.00;5055121;28;19920;-79
2023/01/05 05:45:23;;;;;;;;;;;;;;;9.48;83.08;101519.25;5059019;28;19921;-79
2023/01/05 05:48:07;;;;;;;;;;;;;;;9.51;83.31;101529.53;5051230;28;19917;-79
2023/01/05 05:50:52;;;;;;;;;;;;;;;9.54;82.62;101527.06;5052346;28;19917;-79
2023/01/05 05:53:36;;;;;;;;;;;;;;;9.53;82.57;101530.88;5043859;28;19921;-79
2023/01/05 05:56:21;;;;;;;;;;;;;;;9.50;82.90;101525.22;5053355;28;19924;-79
2023/01/05 05:59:06;;;;;;;;;;;;;;;9.44;82.86;101532.59;5055998;28;19916;-79
2023/01/05 06:01:51;;;;;;;;;;;;;;;9.52;82.60;101520.28;5043303;28;19921;-79
2023/01/05 06:04:35;;;;;;;;;;;;;;;9.53;82.66;101525.44;5056234;28;19918;-79
2023/01/05 06:07:20;;;;;;;;;;;;;;;9.56;82.50;101543.84;5048675;28;20392;-79
2023/01/05 06:10:04;;;;;;;;;;;;;;;9.56;82.31;101540.31;5047516;28;20303;-79
2023/01/05 06:12:49;;;;;;;;;;;;;;;9.54;82.63;101537.91;5050797;28;19917;-79
2023/01/05 06:15:33;;;;;;;;;;;;;;;9.43;82.87;101530.97;5045373;28;19917;-78
2023/01/05 06:18:18;;;;;;;;;;;;;;;9.57;83.52;101528.38;5049773;28;20376;-79
2023/01/05 06:21:02;;;;;;;;;;;;;;;9.43;83.02;101526.34;5068823;28;19916;-77
2023/01/05 06:23:46;;;;;;;;;;;;;;;9.38;83.63;101526.41;5050321;28;19916;-78
2023/01/05 06:26:31;;;;;;;;;;;;;;;9.32;83.85;101524.84;5050278;28;19917;-78
2023/01/05 06:29:16;;;;;;;;;;;;;;;9.33;84.20;101520.22;5059085;28;19925;-78
2023/01/05 06:32:00;;;;;;;;;;;;;;;9.26;84.83;101522.44;5039167;28;19917;-78
2023/01/05 06:34:44;;;;;;;;;;;;;;;9.27;84.89;101511.31;5034912;28;19921;-77
2023/01/05 06:37:28;;;;;;;;;;;;;;;9.23;85.16;101509.47;5033790;28;20295;-77
2023/01/05 06:40:13;;;;;;;;;;;;;;;9.20;85.44;101510.84;5048175;28;20320;-77
2023/01/05 06:42:57;;;;;;;;;;;;;;;9.20;86.00;101505.41;5055132;28;19916;-76
2023/01/05 06:45:42;;;;;;;;;;;;;;;9.29;85.31;101509.13;5048933;28;19924;-77
2023/01/05 06:48:27;;;;;;;;;;;;;;;9.33;85.37;101504.75;5053678;28;19916;-78
2023/01/05 06:51:12;;;;;;;;;;;;;;;9.38;85.34;101507.41;5055362;28;19916;-78
2023/01/05 06:53:56;;;;;;;;;;;;;;;9.43;84.99;101499.22;5033745;28;19921;-78
2023/01/05 06:56:41;;;;;;;;;;;;;;;9.56;84.21;101492.25;5037770;28;20300;-78
2023/01/05 06:59:25;;;;;;;;;;;;;;;9.62;84.23;101496.53;5039837;28;20311;-77
2023/01/05 07:02:12;;;;;;;;;;;;;;;9.70;84.21;101493.19;5040052;28;20403;-78
2023/01/05 07:04:57;;;;;;;;;;;;;;;9.82;84.09;101500.91;5040534;28;19917;-77
2023/01/05 07:07:42;;;;;;;;;;;;;;;9.78;83.43;101495.28;5046741;28;19917;-77
2023/01/05 07:10:27;;;;;;;;;;;;;;;9.86;82.88;101501.94;5051561;28;19980;-77
2023/01/05 07:13:11;;;;;;;;;;;;;;;9.95;82.94;101502.94;5045510;28;19917;-77
2023/01/05 07:15:56;;;;;;;;;;;;;;;9.92;82.81;101500.78;5044655;28;19917;-78
2023/01/05 07:18:42;;;;;;;;;;;;;;;10.00;82.66;101502.06;5043749;28;20506;-77
2023/01/05 07:21:26;;;;;;;;;;;;;;;9.95;81.88;101508.38;5048961;28;19917;-78
2023/01/05 07:24:11;;;;;;;;;;;;;;;10.05;78.95;101518.31;5046711;28;20341;-77
2023/01/05 07:26:57;;;;;;;;;;;;;;;9.88;77.12;101513.34;5053389;28;19917;-77
2023/01/05 07:29:41;;;;;;;;;;;;;;;9.88;76.42;101516.88;5055533;28;19917;-77
2023/01/05 07:32:25;;;;;;;;;;;;;;;9.96;75.27;101506.44;5052314;28;19917;-77
2023/01/05 07:35:10;;;;;;;;;;;;;;;9.97;74.70;101508.06;5041844;28;19921;-78
2023/01/05 07:37:55;;;;;;;;;;;;;;;9.90;74.95;101510.34;5041627;28;19917;-78
2023/01/05 07:40:39;;;;;;;;;;;;;;;9.94;73.94;101514.91;5046747;28;20315;-78
2023/01/05 07:43:23;;;;;;;;;;;;;;;9.82;74.20;101517.22;5036563;28;20007;-78
2023/01/05 07:46:08;;;;;;;;;;;;;;;9.79;74.32;101515.09;5046180;28;20404;-77
2023/01/05 07:48:53;;;;;;;;;;;;;;;9.81;74.28;101505.53;5056004;28;19917;-77
2023/01/05 07:51:37;;;;;;;;;;;;;;;9.80;74.30;101514.00;5052292;28;20311;-78
2023/01/05 07:54:22;;;;;;;;;;;;;;;9.66;73.79;101510.34;5052211;28;19921;-78
2023/01/05 07:57:06;;;;;;;;;;;;;;;9.78;74.25;101513.47;5043975;28;19947;-79
2023/01/05 07:59:50;;;;;;;;;;;;;;;9.84;72.52;101504.97;5046079;28;19921;-77
2023/01/05 08:02:35;;;;;;;;;;;;;;;9.65;71.88;101511.47;5047935;28;19925;-78
2023/01/05 08:05:20;;;;;;;;;;;;;;;9.82;72.53;101515.31;5049725;28;19917;-78
2023/01/05 08:08:04;;;;;;;;;;;;;;;9.66;71.74;101513.88;5044623;28;19917;-77
2023/01/05 08:10:49;;;;;;;;;;;;;;;9.66;71.59;101519.31;5040692;28;19928;-78
2023/01/05 08:16:37;;;;;;;;;;;;;;;9.66;72.67;101513.88;5041197;28;19917;-77
2023/01/05 08:19:21;;;;;;;;;;;;;;;9.74;71.87;101517.88;5041840;28;19920;-77
2023/01/05 08:22:05;;;;;;;;;;;;;;;9.77;72.09;101522.72;5045863;28;19917;-78
2023/01/05 08:24:51;;;;;;;;;;;;;;;9.85;71.85;101511.22;5048898;28;19921;-78
2023/01/05 08:27:35;;;;;;;;;;;;;;;9.87;71.56;101511.72;5038219;28;19942;-78
2023/01/05 08:30:19;;;;;;;;;;;;;;;9.86;70.89;101510.91;5042545;28;19920;-78
2023/01/05 08:33:04;;;;;;;;;;;;;;;9.95;70.73;101511.09;5043139;28;19917;-77
2023/01/05 08:35:49;;;;;;;;;;;;;;;9.93;69.96;101507.84;5044523;28;20391;-78
2023/01/05 08:38:34;;;;;;;;;;;;;;;9.75;71.54;101506.69;5054718;28;19917;-78
2023/01/05 08:41:20;;;;;;;;;;;;;;;9.53;72.29;101509.16;5052753;28;19917;-77
2023/01/05 08:44:07;;;;;;;;;;;;;;;9.62;71.80;101512.84;5032100;28;19917;-78
2023/01/05 08:46:51;;;;;;;;;;;;;;;9.75;71.22;101517.56;5039120;28;19921;-78
2023/01/05 08:49:36;;;;;;;;;;;;;;;9.81;71.00;101504.72;5050188;28;19917;-77
2023/01/05 08:52:22;;;;;;;;;;;;;;;9.90;70.87;101518.50;5047953;28;19925;-78
2023/01/05 08:55:06;;;;;;;;;;;;;;;9.94;71.56;101508.66;5033287;28;19929;-78
2023/01/05 08:57:51;;;;;;;;;;;;;;;9.89;71.70;101517.69;5038493;28;19917;-78
2023/01/05 09:00:35;;;;;;;;;;;;;;;9.96;71.74;101514.59;5037384;28;19929;-76
2023/01/05 09:03:20;;;;;;;;;;;;;;;9.96;71.98;101518.13;5042402;28;19921;-77
2023/01/05 09:06:10;;;;;;;;;;;;;;;10.01;72.49;101518.06;5037049;28;20380;-77
2023/01/05 09:08:55;;;;;;;;;;;;;;;9.92;73.20;101508.13;5050294;28;20323;-77
2023/01/05 09:11:40;;;;;;;;;;;;;;;9.85;73.88;101516.66;5055946;28;20391;-77
2023/01/05 09:14:24;;;;;;;;;;;;;;;9.90;74.14;101519.31;5056046;28;19921;-77
2023/01/05 09:17:08;;;;;;;;;;;;;;;9.88;74.87;101516.88;5048251;28;19917;-77
2023/01/05 09:19:53;;;;;;;;;;;;;;;9.84;76.77;101515.84;5040264;28;19916;-76
2023/01/05 09:22:37;;;;;;;;;;;;;;;9.86;77.25;101512.81;5042351;28;19917;-76
2023/01/05 09:25:22;;;;;;;;;;;;;;;9.86;78.47;101510.09;5048482;28;20391;-78
2023/01/05 09:28:06;;;;;;;;;;;;;;;9.81;79.71;101510.16;5054646;28;19917;-78
2023/01/05 09:30:51;;;;;;;;;;;;;;;9.79;80.00;101513.19;5041157;28;19921;-77
2023/01/05 09:33:35;;;;;;;;;;;;;;;9.99;79.96;101519.47;5054042;28;20292;-77
2023/01/05 09:36:20;;;;;;;;;;;;;;;10.03;80.47;101515.06;5048725;28;20392;-78
2023/01/05 09:39:05;;;;;;;;;;;;;;;10.22;80.29;101516.72;5058885;28;19917;-78
2023/01/05 09:41:51;;;;;;;;;;;;;;;10.29;79.85;101521.81;5054944;28;19920;-77
2023/01/05 09:44:39;;;;;;;;;;;;;;;10.42;80.16;101512.09;5054964;28;20392;-78
2023/01/05 09:47:30;;;;;;;;;;;;;;;10.44;79.88;101512.63;5056967;28;19916;-78
2023/01/05 09:50:20;;;;;;;;;;;;;;;10.42;79.90;101512.09;5052520;28;19917;-77
2023/01/05 09:53:04;;;;;;;;;;;;;;;10.42;80.54;101512.09;5051279;28;19917;-78
2023/01/05 09:55:49;;;;;;;;;;;;;;;10.32;81.19;101504.91;5056913;28;19921;-77
2023/01/05 09:58:37;;;;;;;;;;;;;;;10.36;81.10;101500.50;5049976;28;19917;-77
2023/01/05 10:01:22;;;;;;;;;;;;;;;10.48;81.72;101503.56;5040851;28;19917;-77
2023/01/05 10:04:13;;;;;;;;;;;;;;;10.41;81.57;101497.72;5056341;28;19917;-77
2023/01/05 10:07:00;;;;;;;;;;;;;;;10.39;83.29;101493.66;5071190;28;19917;-77
2023/01/05 10:09:45;;;;;;;;;;;;;;;10.45;83.30;101487.03;5074739;28;19931;-77
2023/01/05 10:13:04;;;;;;;;;;;;;;;10.48;84.06;101487.25;5034663;28;19921;-77
2023/01/05 10:15:51;;;;;;;;;;;;;;;10.54;82.73;101477.91;5048374;28;19921;-78
2023/01/05 10:18:36;;;;;;;;;;;;;;;10.49;83.18;101474.47;5056687;28;19917;-77
2023/01/05 10:21:33;;;;;;;;;;;;;;;10.54;83.93;101472.47;5054434;28;19916;-78
2023/01/05 10:24:24;;;;;;;;;;;;;;;10.72;83.59;101471.63;5053550;28;19917;-77
2023/01/05 10:27:14;;;;;;;;;;;;;;;10.50;82.72;101473.38;5048869;28;20528;-79
2023/01/05 10:30:05;;;;;;;;;;;;;;;10.41;83.39;101469.72;5047960;28;19925;-78
2023/01/05 10:32:59;;;;;;;;;;;;;;;10.46;83.84;101469.63;5044058;28;19917;-78
2023/01/05 10:35:56;;;;;;;;;;;;;;;10.45;83.04;101468.00;5042013;28;20392;-78
2023/01/05 10:38:59;;;;;;;;;;;;;;;10.57;83.15;101465.63;5042037;28;20384;-78
2023/01/05 10:41:49;;;;;;;;;;;;;;;10.59;83.82;101469.69;5039593;28;19921;-78
2023/01/05 10:44:46;;;;;;;;;;;;;;;10.64;82.65;101461.44;5044776;28;20319;-78
2023/01/05 10:47:34;;;;;;;;;;;;;;;10.47;82.07;101453.00;5044454;28;19917;-76
2023/01/05 10:50:19;;;;;;;;;;;;;;;10.69;82.22;101452.38;5053559;28;19917;-76
2023/01/05 10:53:09;;;;;;;;;;;;;;;10.77;82.19;101446.25;5049380;28;19917;-77
2023/01/05 10:56:13;;;;;;;;;;;;;;;10.73;82.68;101446.03;5049766;28;19921;-77
2023/01/05 10:59:09;;;;;;;;;;;;;;;10.69;82.61;101436.88;5049153;28;19917;-78
2023/01/05 11:01:53;;;;;;;;;;;;;;;10.68;82.10;101442.59;5049865;28;19917;-77
2023/01/05 11:04:45;;;;;;;;;;;;;;;10.66;82.08;101447.56;5048754;28;19917;-77
2023/01/05 11:07:29;;;;;;;;;;;;;;;10.54;82.41;101442.56;5051501;28;19920;-77
2023/01/05 11:10:36;;;;;;;;;;;;;;;10.58;81.91;101442.78;5049202;28;19916;-77
2023/01/05 11:13:41;;;;;;;;;;;;;;;10.77;82.04;101434.59;5033740;28;19917;-85
2023/01/05 11:16:31;;;;;;;;;;;;;;;10.50;82.87;101435.31;5045686;28;19925;-76
2023/01/05 11:19:17;;;;;;;;;;;;;;;10.51;82.60;101431.50;5053541;28;19921;-78
2023/01/05 11:22:02;;;;;;;;;;;;;;;10.38;81.95;101429.50;5045242;28;19917;-77
2023/01/05 11:24:49;;;;;;;;;;;;;;;10.41;81.64;101429.75;5053464;28;19920;-78
2023/01/05 11:27:36;;;;;;;;;;;;;;;10.33;82.67;101427.69;5044144;28;19917;-77
2023/01/05 11:30:23;;;;;;;;;;;;;;;10.05;83.80;101413.13;5044250;28;19917;-78
2023/01/05 11:33:13;;;;;;;;;;;;;;;9.79;84.94;101423.56;5035037;28;19917;-77
2023/01/05 11:35:58;;;;;;;;;;;;;;;10.01;84.05;101409.38;5045980;28;20308;-77
2023/01/05 11:38:42;;;;;;;;;;;;;;;9.94;84.72;101408.94;5051703;28;19916;-77
2023/01/05 11:41:27;;;;;;;;;;;;;;;10.39;82.72;101402.03;5052231;28;19917;-78
2023/01/05 11:44:18;;;;;;;;;;;;;;;10.58;81.87;101396.53;5047557;28;20303;-78
2023/01/05 11:47:04;;;;;;;;;;;;;;;10.71;81.10;101399.31;5052682;28;19916;-77
2023/01/05 11:49:56;;;;;;;;;;;;;;;10.98;80.13;101395.81;5038776;28;19917;-77
2023/01/05 11:52:41;;;;;;;;;;;;;;;10.97;79.97;101396.13;5054754;28;19921;-77
2023/01/05 11:55:28;;;;;;;;;;;;;;;10.78;79.62;101388.03;5050135;28;19920;-77
2023/01/05 11:58:16;;;;;;;;;;;;;;;10.71;80.38;101382.19;5041193;28;19916;-77
2023/01/05 12:01:25;;;;;;;;;;;;;;;10.74;80.94;101387.00;5041267;28;19917;-76
2023/01/05 12:04:10;;;;;;;;;;;;;;;11.22;78.22;101378.50;5044643;28;19921;-79
2023/01/05 12:06:54;;;;;;;;;;;;;;;11.23;77.46;101380.09;5042869;28;19917;-77
2023/01/05 12:09:56;;;;;;;;;;;;;;;11.14;77.72;101378.06;5046927;28;19925;-76
2023/01/05 12:12:44;;;;;;;;;;;;;;;11.82;75.71;101362.78;5046903;28;19920;-77
2023/01/05 12:15:51;;;;;;;;;;;;;;;11.25;77.54;101377.88;5050941;28;20307;-77
2023/01/05 12:18:42;;;;;;;;;;;;;;;11.29;76.57;101370.69;5045077;28;19924;-77
2023/01/05 12:21:28;;;;;;;;;;;;;;;11.32;77.42;101357.31;5044446;28;19916;-77
2023/01/05 12:24:31;;;;;;;;;;;;;;;11.59;76.73;101348.28;5042977;28;19917;-77
2023/01/05 12:27:15;;;;;;;;;;;;;;;11.93;74.60;101347.81;5044655;28;19918;-76
2023/01/05 12:30:09;;;;;;;;;;;;;;;12.20;73.55;101355.06;5053131;28;19921;-76
2023/01/05 12:32:56;;;;;;;;;;;;;;;12.78;72.23;101358.47;5053426;28;19917;-77
2023/01/05 12:35:59;;;;;;;;;;;;;;;13.03;71.07;101356.16;5037065;28;19920;-79
2023/01/05 12:38:50;;;;;;;;;;;;;;;12.37;72.54;101349.72;5052123;28;19916;-76
2023/01/05 12:41:40;;;;;;;;;;;;;;;12.81;71.62;101352.34;5056603;28;20384;-77
2023/01/05 12:44:37;;;;;;;;;;;;;;;12.71;71.20;101363.56;5056064;28;19916;-76
2023/01/05 12:47:41;;;;;;;;;;;;;;;13.26;69.24;101350.31;5057299;28;19924;-77
2023/01/05 12:50:26;;;;;;;;;;;;;;;13.35;69.64;101352.25;5060256;28;19917;-77
2023/01/05 12:53:27;;;;;;;;;;;;;;;13.63;68.01;101339.91;5056420;28;19921;-77
2023/01/05 12:56:30;;;;;;;;;;;;;;;13.79;67.53;101341.06;5056026;28;20284;-77
2023/01/05 12:59:19;;;;;;;;;;;;;;;12.84;69.23;101335.38;5062056;28;20380;-77
2023/01/05 13:02:19;;;;;;;;;;;;;;;12.34;72.51;101320.34;5050637;28;19917;-77
2023/01/05 13:05:13;;;;;;;;;;;;;;;12.41;73.19;101321.50;5054568;28;19916;-77
2023/01/05 13:08:16;;;;;;;;;;;;;;;12.65;71.55;101329.31;5051474;28;20315;-77
2023/01/05 13:11:03;;;;;;;;;;;;;;;12.91;70.47;101323.97;5049708;28;19921;-77
2023/01/05 13:13:53;;;;;;;;;;;;;;;12.91;70.11;101323.97;5056023;28;20380;-77
2023/01/05 13:16:39;;;;;;;;;;;;;;;12.65;70.61;101317.59;5056042;28;19920;-78
2023/01/05 13:19:28;;;;;;;;;;;;;;;14.18;64.84;101323.66;5060680;28;20443;-77
2023/01/05 13:22:26;;;;;;;;;;;;;;;15.54;59.94;101317.19;5055893;28;19916;-77
2023/01/05 13:25:20;;;;;;;;;;;;;;;17.01;55.53;101323.59;5056165;28;20295;-77
2023/01/05 13:28:04;;;;;;;;;;;;;;;17.57;54.08;101325.69;5054593;28;19917;-77
2023/01/05 13:31:03;;;;;;;;;;;;;;;18.79;49.46;101319.28;5056077;28;19917;-77
2023/01/05 13:33:50;;;;;;;;;;;;;;;17.52;52.20;101313.00;5056082;28;19917;-77
2023/01/05 13:36:38;;;;;;;;;;;;;;;18.44;51.31;101318.34;5055590;28;19921;-77
2023/01/05 13:39:41;;;;;;;;;;;;;;;20.10;45.99;101315.94;5056843;28;20317;-78
2023/01/05 13:42:28;;;;;;;;;;;;;;;18.86;48.61;101309.59;5059950;28;20287;-78
2023/01/05 13:45:32;;;;;;;;;;;;;;;18.32;50.65;101316.50;5058196;28;20287;-78
2023/01/05 13:48:35;;;;;;;;;;;;;;;20.06;46.29;101317.84;5054951;28;19917;-78
2023/01/05 13:51:19;;;;;;;;;;;;;;;20.62;44.05;101320.09;5051563;28;19917;-78
2023/01/05 13:54:09;;;;;;;;;;;;;;;20.25;44.72;101315.06;5056131;28;19920;-78
2023/01/05 13:56:53;;;;;;;;;;;;;;;19.80;45.42;101307.47;5047890;28;19921;-78
2023/01/05 13:59:38;;;;;;;;;;;;;;;20.54;44.17;101312.81;5056879;28;19917;-78
2023/01/05 14:02:29;;;;;;;;;;;;;;;22.16;41.13;101323.53;5055937;28;20384;-78
2023/01/05 14:05:16;;;;;;;;;;;;;;;21.31;42.24;101318.84;5053805;28;19917;-78
2023/01/05 14:08:03;;;;;;;;;;;;;;;19.95;45.23;101303.81;5054671;28;20307;-78
2023/01/05 14:11:07;;;;;;;;;;;;;;;18.62;48.19;101316.91;5050705;28;19917;-78
2023/01/05 14:13:57;;;;;;;;;;;;;;;19.02;48.50;101318.66;5058354;28;20372;-78
2023/01/05 14:16:42;;;;;;;;;;;;;;;16.84;53.08;101321.06;5056148;28;19921;-77
2023/01/05 14:19:29;;;;;;;;;;;;;;;17.42;52.62;101324.47;5054717;28;20396;-78
2023/01/05 14:22:23;;;;;;;;;;;;;;;18.43;49.79;101330.56;5054697;28;19917;-78
2023/01/05 14:25:26;;;;;;;;;;;;;;;19.79;46.43;101338.97;5049264;28;19917;-79
2023/01/05 14:28:14;;;;;;;;;;;;;;;20.05;45.74;101322.56;5058731;28;19917;-77
2023/01/05 14:31:13;;;;;;;;;;;;;;;20.55;43.95;101331.00;5050502;28;19936;-78
2023/01/05 14:34:06;;;;;;;;;;;;;;;20.15;44.30;101325.88;5054552;28;20372;-78
2023/01/05 14:36:57;;;;;;;;;;;;;;;20.66;43.75;101332.81;5057926;28;19925;-78
2023/01/05 14:39:43;;;;;;;;;;;;;;;19.44;46.21;101333.50;5053935;28;19917;-78
2023/01/05 14:42:35;;;;;;;;;;;;;;;18.55;48.13;101327.72;5053812;28;19917;-78
2023/01/05 14:45:22;;;;;;;;;;;;;;;17.47;50.97;101327.00;5054215;28;19921;-77
2023/01/05 14:48:26;;;;;;;;;;;;;;;18.52;49.15;101331.19;5053792;28;20288;-78
2023/01/05 14:51:10;;;;;;;;;;;;;;;18.56;48.79;101334.84;5049490;28;19917;-78
2023/01/05 14:53:57;;;;;;;;;;;;;;;17.72;50.77;101325.81;5046237;28;20299;-78
2023/01/05 14:57:02;;;;;;;;;;;;;;;17.71;51.45;101326.94;5048508;28;19921;-78